sensor_id;sensor_type;location;lat;lon;timestamp;temperature;humidity
66871;DHT22;53780;44.998;9.926;2022-07-31T06:23:52;26.69;56.21
66871;DHT22;53780;44.998;9.926;2022-07-31T06:27:05;26.73;56.80
66871;DHT22;53780;44.998;9.926;2022-07-31T06:30:11;27.07;55.93
66871;DHT22;53780;44.998;9.926;2022-07-31T06:33:16;27.11;56.94
66871;DHT22;53780;44.998;9.926;2022-07-31T06:36:20;27.52;56.43
66871;DHT22;53780;44.998;9.926;2022-07-31T06:39:38;27.70;54.91
66871;DHT22;53780;44.998;9.926;2022-07-31T06:43:08;28.01;55.11
66871;DHT22;53780;44.998;9.926;2022-07-31T06:46:37;28.24;54.89
66871;DHT22;53780;44.998;9.926;2022-07-31T06:50:00;28.27;55.12
66871;DHT22;53780;44.998;9.926;2022-07-31T06:53:09;28.41;54.74
66871;DHT22;53780;44.998;9.926;2022-07-31T06:56:14;28.82;54.04
66871;DHT22;53780;44.998;9.926;2022-07-31T06:59:19;28.80;53.49
66871;DHT22;53780;44.998;9.926;2022-07-31T07:02:23;28.79;55.34
66871;DHT22;53780;44.998;9.926;2022-07-31T07:05:27;29.43;53.19
66871;DHT22;53780;44.998;9.926;2022-07-31T07:08:33;30.05;51.07
66871;DHT22;53780;44.998;9.926;2022-07-31T07:11:37;30.20;51.92
66871;DHT22;53780;44.998;9.926;2022-07-31T07:14:41;30.54;51.54
66871;DHT22;53780;44.998;9.926;2022-07-31T07:17:45;30.55;51.25
66871;DHT22;53780;44.998;9.926;2022-07-31T07:20:54;30.93;50.59
66871;DHT22;53780;44.998;9.926;2022-07-31T07:23:58;31.22;49.13
66871;DHT22;53780;44.998;9.926;2022-07-31T07:27:11;31.46;47.51
66871;DHT22;53780;44.998;9.926;2022-07-31T07:30:15;31.77;48.20
66871;DHT22;53780;44.998;9.926;2022-07-31T07:33:19;31.94;47.84
66871;DHT22;53780;44.998;9.926;2022-07-31T07:36:23;31.74;48.11
66871;DHT22;53780;44.998;9.926;2022-07-31T07:39:27;32.19;45.09
66871;DHT22;53780;44.998;9.926;2022-07-31T07:42:33;31.80;46.58
66871;DHT22;53780;44.998;9.926;2022-07-31T07:45:37;32.13;46.76
66871;DHT22;53780;44.998;9.926;2022-07-31T07:48:42;32.29;44.44
66871;DHT22;53780;44.998;9.926;2022-07-31T07:51:55;32.42;45.67
66871;DHT22;53780;44.998;9.926;2022-07-31T07:55:19;32.61;45.57
66871;DHT22;53780;44.998;9.926;2022-07-31T07:58:45;33.08;44.08
66871;DHT22;53780;44.998;9.926;2022-07-31T08:02:26;33.15;43.71
66871;DHT22;53780;44.998;9.926;2022-07-31T08:05:30;33.10;43.07
66871;DHT22;53780;44.998;9.926;2022-07-31T08:08:34;33.12;42.36
66871;DHT22;53780;44.998;9.926;2022-07-31T08:11:47;33.10;43.28
66871;DHT22;53780;44.998;9.926;2022-07-31T08:15:01;33.00;45.18
66871;DHT22;53780;44.998;9.926;2022-07-31T08:18:43;33.26;40.96
66871;DHT22;53780;44.998;9.926;2022-07-31T08:21:48;33.04;44.30
66871;DHT22;53780;44.998;9.926;2022-07-31T08:24:52;32.83;44.48
66871;DHT22;53780;44.998;9.926;2022-07-31T08:27:56;33.39;44.94
66871;DHT22;53780;44.998;9.926;2022-07-31T08:31:00;33.51;42.77
66871;DHT22;53780;44.998;9.926;2022-07-31T08:34:05;33.72;42.45
66871;DHT22;53780;44.998;9.926;2022-07-31T08:37:12;33.51;42.00
66871;DHT22;53780;44.998;9.926;2022-07-31T08:40:16;33.53;42.20
66871;DHT22;53780;44.998;9.926;2022-07-31T08:43:21;33.55;42.52
66871;DHT22;53780;44.998;9.926;2022-07-31T08:46:26;33.80;41.86
66871;DHT22;53780;44.998;9.926;2022-07-31T08:49:32;33.94;42.13
66871;DHT22;53780;44.998;9.926;2022-07-31T08:52:42;33.69;41.87
66871;DHT22;53780;44.998;9.926;2022-07-31T08:55:59;33.80;41.29
66871;DHT22;53780;44.998;9.926;2022-07-31T08:59:06;33.52;42.64
66871;DHT22;53780;44.998;9.926;2022-07-31T09:02:11;33.69;40.92
66871;DHT22;53780;44.998;9.926;2022-07-31T09:05:27;33.55;41.65
66871;DHT22;53780;44.998;9.926;2022-07-31T09:08:32;33.18;43.16
66871;DHT22;53780;44.998;9.926;2022-07-31T09:11:45;33.42;46.84
66871;DHT22;53780;44.998;9.926;2022-07-31T09:15:28;34.14;43.26
66871;DHT22;53780;44.998;9.926;2022-07-31T09:18:35;34.71;42.76
66871;DHT22;53780;44.998;9.926;2022-07-31T09:21:46;35.00;38.63
66871;DHT22;53780;44.998;9.926;2022-07-31T09:24:50;34.96;39.08
66871;DHT22;53780;44.998;9.926;2022-07-31T09:28:00;34.92;40.38
66871;DHT22;53780;44.998;9.926;2022-07-31T09:31:06;34.69;40.56
66871;DHT22;53780;44.998;9.926;2022-07-31T09:34:34;34.96;39.90
66871;DHT22;53780;44.998;9.926;2022-07-31T09:37:45;34.82;41.87
66871;DHT22;53780;44.998;9.926;2022-07-31T09:41:10;35.38;40.79
66871;DHT22;53780;44.998;9.926;2022-07-31T09:44:44;35.71;39.80
66871;DHT22;53780;44.998;9.926;2022-07-31T09:48:03;35.65;39.33
66871;DHT22;53780;44.998;9.926;2022-07-31T09:51:08;35.95;38.42
66871;DHT22;53780;44.998;9.926;2022-07-31T09:54:23;35.93;38.49
66871;DHT22;53780;44.998;9.926;2022-07-31T09:57:30;35.98;38.13
66871;DHT22;53780;44.998;9.926;2022-07-31T10:00:37;36.16;38.50
66871;DHT22;53780;44.998;9.926;2022-07-31T10:03:42;36.40;37.60
66871;DHT22;53780;44.998;9.926;2022-07-31T10:06:49;36.33;35.24
66871;DHT22;53780;44.998;9.926;2022-07-31T10:09:56;36.23;37.72
66871;DHT22;53780;44.998;9.926;2022-07-31T10:13:19;36.36;38.53
66871;DHT22;53780;44.998;9.926;2022-07-31T10:16:25;36.40;37.64
66871;DHT22;53780;44.998;9.926;2022-07-31T10:19:35;36.35;37.47
66871;DHT22;53780;44.998;9.926;2022-07-31T10:23:17;36.50;39.48
66871;DHT22;53780;44.998;9.926;2022-07-31T10:26:24;36.75;36.26
66871;DHT22;53780;44.998;9.926;2022-07-31T10:29:28;36.84;35.99
66871;DHT22;53780;44.998;9.926;2022-07-31T10:32:33;37.01;35.12
66871;DHT22;53780;44.998;9.926;2022-07-31T10:36:19;36.82;35.91
66871;DHT22;53780;44.998;9.926;2022-07-31T10:46:12;36.87;37.04
66871;DHT22;53780;44.998;9.926;2022-07-31T10:49:45;37.33;35.57
66871;DHT22;53780;44.998;9.926;2022-07-31T10:53:14;37.14;34.76
66871;DHT22;53780;44.998;9.926;2022-07-31T10:56:45;35.80;35.54
66871;DHT22;53780;44.998;9.926;2022-07-31T11:00:15;36.30;38.76
66871;DHT22;53780;44.998;9.926;2022-07-31T11:03:53;36.36;36.37
66871;DHT22;53780;44.998;9.926;2022-07-31T11:06:59;36.87;33.78
66871;DHT22;53780;44.998;9.926;2022-07-31T11:10:27;37.36;32.40
66871;DHT22;53780;44.998;9.926;2022-07-31T11:13:51;37.22;32.71
66871;DHT22;53780;44.998;9.926;2022-07-31T11:17:13;37.36;34.11
66871;DHT22;53780;44.998;9.926;2022-07-31T11:20:25;37.83;34.94
66871;DHT22;53780;44.998;9.926;2022-07-31T11:23:31;38.31;33.35
66871;DHT22;53780;44.998;9.926;2022-07-31T11:26:35;38.52;34.39
66871;DHT22;53780;44.998;9.926;2022-07-31T11:29:39;38.36;32.40
66871;DHT22;53780;44.998;9.926;2022-07-31T11:32:51;37.33;33.85
66871;DHT22;53780;44.998;9.926;2022-07-31T11:35:57;37.19;33.62
66871;DHT22;53780;44.998;9.926;2022-07-31T11:39:11;37.70;34.90
66871;DHT22;53780;44.998;9.926;2022-07-31T11:42:16;38.17;33.81
66871;DHT22;53780;44.998;9.926;2022-07-31T11:45:20;37.95;32.40
66871;DHT22;53780;44.998;9.926;2022-07-31T11:48:24;37.93;34.43
66871;DHT22;53780;44.998;9.926;2022-07-31T11:51:30;38.35;30.92
66871;DHT22;53780;44.998;9.926;2022-07-31T11:54:34;38.48;31.24
66871;DHT22;53780;44.998;9.926;2022-07-31T11:57:40;38.35;31.39
66871;DHT22;53780;44.998;9.926;2022-07-31T12:00:55;38.31;29.78
66871;DHT22;53780;44.998;9.926;2022-07-31T12:04:00;38.18;33.15
66871;DHT22;53780;44.998;9.926;2022-07-31T12:07:07;38.05;30.89
66871;DHT22;53780;44.998;9.926;2022-07-31T12:10:12;37.78;30.48
66871;DHT22;53780;44.998;9.926;2022-07-31T12:13:17;37.30;30.61
66871;DHT22;53780;44.998;9.926;2022-07-31T12:16:22;36.95;31.64
66871;DHT22;53780;44.998;9.926;2022-07-31T12:19:28;36.91;30.44
66871;DHT22;53780;44.998;9.926;2022-07-31T12:22:32;36.39;30.69
66871;DHT22;53780;44.998;9.926;2022-07-31T12:25:43;36.30;30.47
66871;DHT22;53780;44.998;9.926;2022-07-31T12:29:07;36.13;28.53
66871;DHT22;53780;44.998;9.926;2022-07-31T12:32:22;36.18;28.73
66871;DHT22;53780;44.998;9.926;2022-07-31T12:35:34;35.81;29.78
66871;DHT22;53780;44.998;9.926;2022-07-31T12:38:38;35.70;31.68
66871;DHT22;53780;44.998;9.926;2022-07-31T12:41:42;35.54;31.13
66871;DHT22;53780;44.998;9.926;2022-07-31T12:44:50;35.27;31.55
66871;DHT22;53780;44.998;9.926;2022-07-31T12:47:54;35.02;30.85
66871;DHT22;53780;44.998;9.926;2022-07-31T12:50:59;34.68;30.83
66871;DHT22;53780;44.998;9.926;2022-07-31T12:54:03;34.76;31.48
66871;DHT22;53780;44.998;9.926;2022-07-31T12:57:07;35.10;32.39
66871;DHT22;53780;44.998;9.926;2022-07-31T13:00:11;35.20;31.82
66871;DHT22;53780;44.998;9.926;2022-07-31T13:03:15;35.23;32.14
66871;DHT22;53780;44.998;9.926;2022-07-31T13:06:19;35.16;33.57
66871;DHT22;53780;44.998;9.926;2022-07-31T13:09:23;35.06;31.20
66871;DHT22;53780;44.998;9.926;2022-07-31T13:12:26;34.89;30.61
66871;DHT22;53780;44.998;9.926;2022-07-31T13:15:30;34.79;32.01
66871;DHT22;53780;44.998;9.926;2022-07-31T13:18:34;34.63;31.20
66871;DHT22;53780;44.998;9.926;2022-07-31T13:21:38;34.58;32.30
66871;DHT22;53780;44.998;9.926;2022-07-31T13:24:42;34.73;33.29
66871;DHT22;53780;44.998;9.926;2022-07-31T13:27:46;34.62;31.60
66871;DHT22;53780;44.998;9.926;2022-07-31T13:30:50;34.56;30.69
66871;DHT22;53780;44.998;9.926;2022-07-31T13:33:55;34.59;30.92
66871;DHT22;53780;44.998;9.926;2022-07-31T13:37:00;34.54;30.78
66871;DHT22;53780;44.998;9.926;2022-07-31T13:40:04;34.56;33.11
66871;DHT22;53780;44.998;9.926;2022-07-31T13:43:08;34.48;31.96
66871;DHT22;53780;44.998;9.926;2022-07-31T13:46:12;34.34;31.01
66871;DHT22;53780;44.998;9.926;2022-07-31T13:49:16;34.44;31.11
66871;DHT22;53780;44.998;9.926;2022-07-31T13:52:19;34.45;31.93
66871;DHT22;53780;44.998;9.926;2022-07-31T13:55:24;34.35;32.94
66871;DHT22;53780;44.998;9.926;2022-07-31T13:58:28;34.40;34.22
66871;DHT22;53780;44.998;9.926;2022-07-31T14:01:32;34.44;35.21
66871;DHT22;53780;44.998;9.926;2022-07-31T14:04:35;34.33;33.96
66871;DHT22;53780;44.998;9.926;2022-07-31T14:07:39;34.16;33.20
66871;DHT22;53780;44.998;9.926;2022-07-31T14:10:48;34.10;33.48
66871;DHT22;53780;44.998;9.926;2022-07-31T14:13:52;34.10;34.04
66871;DHT22;53780;44.998;9.926;2022-07-31T14:16:56;33.86;30.89
66871;DHT22;53780;44.998;9.926;2022-07-31T14:20:00;33.68;33.63
66871;DHT22;53780;44.998;9.926;2022-07-31T14:23:05;33.59;34.42
66871;DHT22;53780;44.998;9.926;2022-07-31T14:26:10;33.73;33.86
66871;DHT22;53780;44.998;9.926;2022-07-31T14:29:14;33.87;34.66
66871;DHT22;53780;44.998;9.926;2022-07-31T14:32:18;33.85;33.40
66871;DHT22;53780;44.998;9.926;2022-07-31T14:35:24;33.87;33.42
66871;DHT22;53780;44.998;9.926;2022-07-31T14:38:28;33.74;34.83
66871;DHT22;53780;44.998;9.926;2022-07-31T14:41:32;33.70;35.99
66871;DHT22;53780;44.998;9.926;2022-07-31T14:44:37;33.73;33.71
66871;DHT22;53780;44.998;9.926;2022-07-31T14:47:42;33.43;34.10
66871;DHT22;53780;44.998;9.926;2022-07-31T14:50:49;33.43;34.48
66871;DHT22;53780;44.998;9.926;2022-07-31T14:53:53;33.46;31.79
66871;DHT22;53780;44.998;9.926;2022-07-31T14:56:58;33.43;33.44
66871;DHT22;53780;44.998;9.926;2022-07-31T15:00:05;33.41;32.35
66871;DHT22;53780;44.998;9.926;2022-07-31T15:03:16;33.48;33.44
66871;DHT22;53780;44.998;9.926;2022-07-31T15:06:20;33.52;32.93
66871;DHT22;53780;44.998;9.926;2022-07-31T15:09:25;33.63;34.51
66871;DHT22;53780;44.998;9.926;2022-07-31T15:12:29;33.56;34.77
66871;DHT22;53780;44.998;9.926;2022-07-31T15:15:34;33.45;33.98
66871;DHT22;53780;44.998;9.926;2022-07-31T15:18:37;33.41;33.05
66871;DHT22;53780;44.998;9.926;2022-07-31T15:21:44;33.33;32.77
66871;DHT22;53780;44.998;9.926;2022-07-31T15:24:48;33.24;30.57
66871;DHT22;53780;44.998;9.926;2022-07-31T15:27:53;33.18;33.43
66871;DHT22;53780;44.998;9.926;2022-07-31T15:30:57;33.26;32.38
66871;DHT22;53780;44.998;9.926;2022-07-31T15:34:02;33.25;30.54
66871;DHT22;53780;44.998;9.926;2022-07-31T15:37:06;33.24;35.05
66871;DHT22;53780;44.998;9.926;2022-07-31T15:40:12;33.17;32.30
66871;DHT22;53780;44.998;9.926;2022-07-31T15:43:17;33.18;32.81
66871;DHT22;53780;44.998;9.926;2022-07-31T15:46:21;33.12;31.68
66871;DHT22;53780;44.998;9.926;2022-07-31T15:49:25;33.12;33.83
66871;DHT22;53780;44.998;9.926;2022-07-31T15:52:29;33.22;33.79
66871;DHT22;53780;44.998;9.926;2022-07-31T15:55:33;33.19;32.18
66871;DHT22;53780;44.998;9.926;2022-07-31T15:58:37;33.19;33.27
66871;DHT22;53780;44.998;9.926;2022-07-31T16:01:41;33.14;33.77
66871;DHT22;53780;44.998;9.926;2022-07-31T16:04:45;33.14;32.90
66871;DHT22;53780;44.998;9.926;2022-07-31T16:07:49;33.07;32.79
66871;DHT22;53780;44.998;9.926;2022-07-31T16:10:53;33.11;33.15
66871;DHT22;53780;44.998;9.926;2022-07-31T16:13:57;33.03;31.66
66871;DHT22;53780;44.998;9.926;2022-07-31T16:17:01;32.97;33.91
66871;DHT22;53780;44.998;9.926;2022-07-31T16:23:11;33.04;33.93
66871;DHT22;53780;44.998;9.926;2022-07-31T16:26:16;33.03;33.34
66871;DHT22;53780;44.998;9.926;2022-07-31T16:29:20;32.97;33.73
66871;DHT22;53780;44.998;9.926;2022-07-31T16:32:26;32.90;33.92
66871;DHT22;53780;44.998;9.926;2022-07-31T16:35:31;32.87;33.93
66871;DHT22;53780;44.998;9.926;2022-07-31T16:38:35;32.80;32.97
66871;DHT22;53780;44.998;9.926;2022-07-31T16:41:40;32.78;33.11
66871;DHT22;53780;44.998;9.926;2022-07-31T16:44:44;32.77;33.73
66871;DHT22;53780;44.998;9.926;2022-07-31T16:47:48;32.71;34.57
66871;DHT22;53780;44.998;9.926;2022-07-31T16:50:53;32.64;32.75
66871;DHT22;53780;44.998;9.926;2022-07-31T16:53:57;32.64;34.75
66871;DHT22;53780;44.998;9.926;2022-07-31T16:57:01;32.59;33.25
66871;DHT22;53780;44.998;9.926;2022-07-31T17:00:06;32.55;34.02
66871;DHT22;53780;44.998;9.926;2022-07-31T17:03:10;32.50;35.31
66871;DHT22;53780;44.998;9.926;2022-07-31T17:06:14;32.48;34.22
66871;DHT22;53780;44.998;9.926;2022-07-31T17:09:18;32.44;33.80
66871;DHT22;53780;44.998;9.926;2022-07-31T17:12:22;32.44;34.79
66871;DHT22;53780;44.998;9.926;2022-07-31T17:15:27;32.43;33.78
66871;DHT22;53780;44.998;9.926;2022-07-31T17:18:31;32.33;32.14
66871;DHT22;53780;44.998;9.926;2022-07-31T17:21:35;32.31;32.65
66871;DHT22;53780;44.998;9.926;2022-07-31T17:24:39;32.28;33.63
66871;DHT22;53780;44.998;9.926;2022-07-31T17:27:43;32.25;34.39
66871;DHT22;53780;44.998;9.926;2022-07-31T17:30:47;32.18;34.85
66871;DHT22;53780;44.998;9.926;2022-07-31T17:33:51;32.11;36.73
66871;DHT22;53780;44.998;9.926;2022-07-31T17:36:55;32.06;34.28
66871;DHT22;53780;44.998;9.926;2022-07-31T17:40:00;32.04;37.58
66871;DHT22;53780;44.998;9.926;2022-07-31T17:43:04;31.94;37.80
66871;DHT22;53780;44.998;9.926;2022-07-31T17:46:08;31.85;38.43
66871;DHT22;53780;44.998;9.926;2022-07-31T17:49:12;31.78;39.13
66871;DHT22;53780;44.998;9.926;2022-07-31T17:52:16;31.70;40.19
66871;DHT22;53780;44.998;9.926;2022-07-31T17:55:19;31.63;41.16
66871;DHT22;53780;44.998;9.926;2022-07-31T17:58:23;31.56;40.62
66871;DHT22;53780;44.998;9.926;2022-07-31T18:01:28;31.44;40.71
66871;DHT22;53780;44.998;9.926;2022-07-31T18:04:34;31.36;40.00
66871;DHT22;53780;44.998;9.926;2022-07-31T18:07:39;31.29;41.24
66871;DHT22;53780;44.998;9.926;2022-07-31T18:10:43;31.23;43.12
66871;DHT22;53780;44.998;9.926;2022-07-31T18:13:48;31.16;44.41
66871;DHT22;53780;44.998;9.926;2022-07-31T18:16:52;31.05;43.08
66871;DHT22;53780;44.998;9.926;2022-07-31T18:19:56;30.92;42.05
66871;DHT22;53780;44.998;9.926;2022-07-31T18:23:00;30.81;39.32
66871;DHT22;53780;44.998;9.926;2022-07-31T18:26:05;30.71;38.49
66871;DHT22;53780;44.998;9.926;2022-07-31T18:29:09;30.67;38.84
66871;DHT22;53780;44.998;9.926;2022-07-31T18:32:13;30.65;38.97
66871;DHT22;53780;44.998;9.926;2022-07-31T18:35:17;30.57;38.10
66871;DHT22;53780;44.998;9.926;2022-07-31T18:38:21;30.57;38.62
66871;DHT22;53780;44.998;9.926;2022-07-31T18:41:25;30.53;39.01
66871;DHT22;53780;44.998;9.926;2022-07-31T18:44:28;30.48;39.06
66871;DHT22;53780;44.998;9.926;2022-07-31T18:47:32;30.40;38.86
66871;DHT22;53780;44.998;9.926;2022-07-31T18:50:36;30.34;39.18
66871;DHT22;53780;44.998;9.926;2022-07-31T18:53:40;30.30;39.36
66871;DHT22;53780;44.998;9.926;2022-07-31T18:56:44;30.21;40.73
66871;DHT22;53780;44.998;9.926;2022-07-31T18:59:49;30.09;42.99
66871;DHT22;53780;44.998;9.926;2022-07-31T19:02:53;29.86;44.99
66871;DHT22;53780;44.998;9.926;2022-07-31T19:05:56;29.62;45.70
66871;DHT22;53780;44.998;9.926;2022-07-31T19:09:01;29.47;44.97
66871;DHT22;53780;44.998;9.926;2022-07-31T19:12:05;29.34;45.33
66871;DHT22;53780;44.998;9.926;2022-07-31T19:15:09;29.20;45.32
66871;DHT22;53780;44.998;9.926;2022-07-31T19:18:13;29.16;45.30
66871;DHT22;53780;44.998;9.926;2022-07-31T19:21:17;29.14;45.55
66871;DHT22;53780;44.998;9.926;2022-07-31T19:24:22;29.03;46.21
66871;DHT22;53780;44.998;9.926;2022-07-31T19:27:26;29.04;46.62
66871;DHT22;53780;44.998;9.926;2022-07-31T19:30:30;29.00;47.45
66871;DHT22;53780;44.998;9.926;2022-07-31T19:33:34;28.84;48.16
66871;DHT22;53780;44.998;9.926;2022-07-31T19:36:38;28.69;48.18
66871;DHT22;53780;44.998;9.926;2022-07-31T19:39:42;28.59;49.41
66871;DHT22;53780;44.998;9.926;2022-07-31T19:42:46;28.52;49.78
66871;DHT22;53780;44.998;9.926;2022-07-31T19:45:50;28.40;49.44
66871;DHT22;53780;44.998;9.926;2022-07-31T19:48:55;28.29;48.47
66871;DHT22;53780;44.998;9.926;2022-07-31T19:51:59;28.31;48.84
66871;DHT22;53780;44.998;9.926;2022-07-31T19:55:04;28.28;48.19
66871;DHT22;53780;44.998;9.926;2022-07-31T19:58:08;28.31;48.60
66871;DHT22;53780;44.998;9.926;2022-07-31T20:01:12;28.32;49.18
66871;DHT22;53780;44.998;9.926;2022-07-31T20:04:16;28.32;48.87
66871;DHT22;53780;44.998;9.926;2022-07-31T20:07:21;28.27;50.05
66871;DHT22;53780;44.998;9.926;2022-07-31T20:10:25;28.24;49.85
66871;DHT22;53780;44.998;9.926;2022-07-31T20:13:29;28.17;50.53
66871;DHT22;53780;44.998;9.926;2022-07-31T20:16:33;28.10;50.71
66871;DHT22;53780;44.998;9.926;2022-07-31T20:19:37;27.93;51.95
66871;DHT22;53780;44.998;9.926;2022-07-31T20:22:42;27.87;52.34
66871;DHT22;53780;44.998;9.926;2022-07-31T20:25:46;27.77;52.06
66871;DHT22;53780;44.998;9.926;2022-07-31T20:28:50;27.62;56.65
66871;DHT22;53780;44.998;9.926;2022-07-31T20:31:54;27.39;60.85
66871;DHT22;53780;44.998;9.926;2022-07-31T20:34:58;27.04;59.08
66871;DHT22;53780;44.998;9.926;2022-07-31T20:38:02;26.82;60.14
66871;DHT22;53780;44.998;9.926;2022-07-31T20:41:06;26.67;60.60
66871;DHT22;53780;44.998;9.926;2022-07-31T20:44:10;26.57;59.68
66871;DHT22;53780;44.998;9.926;2022-07-31T20:47:14;26.48;60.12
66871;DHT22;53780;44.998;9.926;2022-07-31T20:50:18;26.46;58.37
66871;DHT22;53780;44.998;9.926;2022-07-31T20:53:22;26.35;60.78
66871;DHT22;53780;44.998;9.926;2022-07-31T20:56:26;26.31;61.45
66871;DHT22;53780;44.998;9.926;2022-07-31T20:59:30;26.22;63.25
66871;DHT22;53780;44.998;9.926;2022-07-31T21:02:33;26.04;62.95
66871;DHT22;53780;44.998;9.926;2022-07-31T21:05:38;25.88;63.95
66871;DHT22;53780;44.998;9.926;2022-07-31T21:08:42;25.78;63.15
66871;DHT22;53780;44.998;9.926;2022-07-31T21:11:46;25.71;60.65
66871;DHT22;53780;44.998;9.926;2022-07-31T21:14:50;25.53;58.81
66871;DHT22;53780;44.998;9.926;2022-07-31T21:17:54;25.53;61.20
66871;DHT22;53780;44.998;9.926;2022-07-31T21:21:00;25.56;62.63
66871;DHT22;53780;44.998;9.926;2022-07-31T21:24:05;25.54;60.02
66871;DHT22;53780;44.998;9.926;2022-07-31T21:27:11;25.60;59.33
66871;DHT22;53780;44.998;9.926;2022-07-31T21:30:17;25.63;59.85
66871;DHT22;53780;44.998;9.926;2022-07-31T21:33:22;25.57;60.09
66871;DHT22;53780;44.998;9.926;2022-07-31T21:36:27;25.45;59.90
66871;DHT22;53780;44.998;9.926;2022-07-31T21:39:31;25.43;59.16
66871;DHT22;53780;44.998;9.926;2022-07-31T21:42:36;25.42;59.86
66871;DHT22;53780;44.998;9.926;2022-07-31T21:45:40;25.47;58.62
